createdAt,value
2023-03-06T00:00:56.769Z,5.05
2023-03-06T00:03:27.722Z,5.43
2023-03-06T00:05:57.493Z,5.85
2023-03-06T00:08:26.640Z,9.70
2023-03-06T00:10:54.929Z,4.60
2023-03-06T00:13:22.560Z,10.07
2023-03-06T00:15:50.415Z,8.85
2023-03-06T00:18:17.671Z,4.72
2023-03-06T00:20:45.304Z,4.47
2023-03-06T00:23:13.071Z,4.28
2023-03-06T00:25:45.294Z,6.88
2023-03-06T00:28:14.917Z,4.10
2023-03-06T00:30:43.150Z,7.50
2023-03-06T00:33:10.623Z,5.65
2023-03-06T00:35:42.016Z,6.50
2023-03-06T00:38:12.456Z,6.32
2023-03-06T00:40:39.981Z,7.90
2023-03-06T00:43:07.217Z,5.57
2023-03-06T00:45:34.550Z,8.65
2023-03-06T00:48:01.621Z,5.10
2023-03-06T00:50:28.869Z,11.50
2023-03-06T00:52:55.913Z,8.18
2023-03-06T00:55:23.298Z,6.45
2023-03-06T00:57:50.394Z,8.77
2023-03-06T01:00:18.413Z,6.78
2023-03-06T01:02:45.319Z,5.75
2023-03-06T01:05:14.514Z,5.22
2023-03-06T01:07:41.526Z,5.30
2023-03-06T01:10:10.690Z,7.93
2023-03-06T01:12:37.767Z,6.28
2023-03-06T01:15:06.994Z,6.50
2023-03-06T01:17:33.960Z,5.18
2023-03-06T01:20:01.666Z,4.45
2023-03-06T01:22:28.655Z,6.57
2023-03-06T01:24:55.923Z,6.97
2023-03-06T01:27:22.876Z,7.57
2023-03-06T01:29:50.037Z,5.32
2023-03-06T01:32:17.038Z,5.93
2023-03-06T01:34:44.367Z,10.20
2023-03-06T01:37:11.530Z,9.80
2023-03-06T01:39:38.751Z,6.03
2023-03-06T01:42:06.005Z,5.95
2023-03-06T01:44:33.475Z,6.20
2023-03-06T01:47:02.387Z,4.85
2023-03-06T01:49:36.740Z,9.10
2023-03-06T01:52:14.577Z,8.00
2023-03-06T01:54:59.199Z,8.63
2023-03-06T01:57:34.046Z,6.63
2023-03-06T02:00:14.726Z,6.07
2023-03-06T02:02:47.690Z,6.05
2023-03-06T02:05:14.999Z,8.48
2023-03-06T02:07:44.926Z,6.82
2023-03-06T02:10:13.276Z,10.38
2023-03-06T02:12:43.782Z,7.63
2023-03-06T02:15:14.904Z,7.60
2023-03-06T02:17:44.932Z,10.07
2023-03-06T02:20:21.209Z,6.03
2023-03-06T02:23:14.873Z,9.10
2023-03-06T02:25:48.480Z,8.95
2023-03-06T02:28:21.621Z,8.55
2023-03-06T02:30:52.333Z,8.02
2023-03-06T02:33:24.888Z,8.63
2023-03-06T02:35:58.962Z,6.88
2023-03-06T02:38:34.452Z,11.40
2023-03-06T02:41:06.911Z,9.38
2023-03-06T02:43:40.027Z,9.32
2023-03-06T02:46:07.913Z,8.70
2023-03-06T02:48:34.905Z,8.05
2023-03-06T02:51:02.095Z,9.85
2023-03-06T02:53:28.987Z,13.57
2023-03-06T02:55:56.237Z,6.78
2023-03-06T02:58:23.301Z,14.70
2023-03-06T03:00:51.072Z,9.95
2023-03-06T03:03:18.776Z,10.07
2023-03-06T03:05:45.922Z,10.27
2023-03-06T03:08:12.936Z,11.70
2023-03-06T03:10:40.221Z,11.27
2023-03-06T03:13:07.337Z,12.80
2023-03-06T03:15:34.653Z,8.73
2023-03-06T03:18:01.578Z,12.93
2023-03-06T03:20:28.830Z,12.45
2023-03-06T03:22:56.452Z,10.75
2023-03-06T03:25:26.352Z,14.90
2023-03-06T03:27:53.767Z,9.73
2023-03-06T03:30:21.135Z,9.45
2023-03-06T03:32:48.092Z,8.75
2023-03-06T03:35:15.320Z,12.80
2023-03-06T03:37:42.374Z,9.05
2023-03-06T03:40:10.816Z,10.50
2023-03-06T03:42:37.908Z,9.52
2023-03-06T03:45:05.678Z,11.48
2023-03-06T03:47:32.703Z,8.63
2023-03-06T03:49:59.855Z,9.98
2023-03-06T03:52:26.923Z,9.25
2023-03-06T03:54:54.224Z,11.10
2023-03-06T03:57:21.272Z,11.48
2023-03-06T03:59:48.460Z,11.27
2023-03-06T04:02:15.653Z,11.43
2023-03-06T04:04:43.348Z,12.25
2023-03-06T04:07:10.436Z,11.38
2023-03-06T04:09:37.736Z,8.63
2023-03-06T04:12:06.461Z,9.23
2023-03-06T04:14:34.279Z,13.63
2023-03-06T04:17:01.228Z,11.93
2023-03-06T04:19:28.536Z,9.75
2023-03-06T04:21:55.457Z,12.07
2023-03-06T04:24:22.636Z,17.50
2023-03-06T04:26:49.550Z,15.98
2023-03-06T04:29:16.970Z,12.30
2023-03-06T04:31:43.915Z,13.38
2023-03-06T04:34:11.281Z,13.23
2023-03-06T04:36:38.703Z,13.27
2023-03-06T04:39:05.942Z,13.73
2023-03-06T04:41:33.800Z,12.95
2023-03-06T04:44:01.120Z,10.45
2023-03-06T04:46:28.074Z,14.15
2023-03-06T04:48:55.303Z,15.88
2023-03-06T04:51:22.295Z,12.80
2023-03-06T04:53:49.671Z,11.70
2023-03-06T04:56:16.736Z,12.75
2023-03-06T04:58:45.177Z,12.05
2023-03-06T05:01:12.902Z,11.43
2023-03-06T05:03:40.313Z,14.38
2023-03-06T05:06:07.655Z,13.85
2023-03-06T05:08:35.186Z,17.13
2023-03-06T05:11:02.572Z,13.43
2023-03-06T05:13:29.937Z,16.88
2023-03-06T05:16:04.037Z,12.80
2023-03-06T05:18:32.766Z,16.02
2023-03-06T05:21:00.195Z,12.43
2023-03-06T05:23:29.678Z,12.63
2023-03-06T05:25:58.259Z,14.13
2023-03-06T05:28:26.536Z,15.88
2023-03-06T05:30:53.622Z,15.52
2023-03-06T05:33:20.820Z,15.20
2023-03-06T05:35:49.009Z,15.77
2023-03-06T05:38:17.695Z,17.63
2023-03-06T05:40:45.897Z,13.13
2023-03-06T05:43:13.290Z,18.90
2023-03-06T05:45:41.307Z,14.35
2023-03-06T05:48:09.311Z,13.82
2023-03-06T05:50:36.296Z,16.05
2023-03-06T05:53:03.859Z,17.48
2023-03-06T05:55:31.206Z,13.00
2023-03-06T05:57:58.477Z,12.98
2023-03-06T06:00:25.802Z,15.75
2023-03-06T06:02:54.457Z,17.38
2023-03-06T06:05:21.404Z,13.45
2023-03-06T06:07:48.686Z,14.93
2023-03-06T06:10:15.976Z,18.02
2023-03-06T06:12:43.368Z,15.23
2023-03-06T06:15:10.764Z,17.85
2023-03-06T06:17:38.029Z,16.98
2023-03-06T06:20:05.657Z,12.95
2023-03-06T06:22:37.988Z,19.80
2023-03-06T06:25:06.727Z,17.30
2023-03-06T06:27:34.394Z,15.38
2023-03-06T06:30:01.374Z,15.80
2023-03-06T06:32:28.766Z,19.40
2023-03-06T06:34:55.906Z,16.40
2023-03-06T06:37:23.417Z,17.23
2023-03-06T06:39:50.889Z,15.00
2023-03-06T06:42:31.460Z,20.20
2023-03-06T06:45:05.386Z,19.25
2023-03-06T06:47:34.344Z,16.58
2023-03-06T06:50:01.492Z,17.50
2023-03-06T06:52:28.808Z,18.58
2023-03-06T06:54:55.830Z,19.63
2023-03-06T06:57:23.037Z,15.23
2023-03-06T06:59:52.392Z,16.05
2023-03-06T07:02:21.293Z,17.60
2023-03-06T07:05:02.942Z,20.63
2023-03-06T07:07:37.343Z,15.15
2023-03-06T07:10:11.967Z,23.25
2023-03-06T07:15:08.236Z,19.05
2023-03-06T07:17:35.893Z,19.50
2023-03-06T07:20:04.624Z,16.40
2023-03-06T07:22:41.431Z,18.35
2023-03-06T07:25:12.691Z,19.30
2023-03-06T07:27:40.062Z,18.67
2023-03-06T07:30:08.363Z,17.02
2023-03-06T07:32:36.037Z,18.85
2023-03-06T07:35:19.019Z,19.63
2023-03-06T07:37:47.152Z,20.70
2023-03-06T07:40:14.563Z,17.88
2023-03-06T07:42:41.806Z,21.67
2023-03-06T07:45:18.031Z,20.25
2023-03-06T07:47:46.345Z,17.90
2023-03-06T07:50:13.658Z,22.20
2023-03-06T07:52:40.955Z,19.55
2023-03-06T07:55:09.708Z,18.70
2023-03-06T07:57:38.684Z,19.38
2023-03-06T08:00:10.471Z,22.90
2023-03-06T08:02:37.770Z,22.83
2023-03-06T08:05:06.317Z,15.20
2023-03-06T08:07:33.836Z,19.63
2023-03-06T08:10:01.154Z,23.70
2023-03-06T08:12:28.555Z,21.25
2023-03-06T08:14:55.561Z,25.52
2023-03-06T08:17:22.973Z,18.83
2023-03-06T08:19:50.155Z,27.55
2023-03-06T08:22:17.455Z,22.88
2023-03-06T08:24:44.469Z,22.52
2023-03-06T08:27:11.696Z,23.70
2023-03-06T08:29:38.752Z,19.20
2023-03-06T08:32:06.420Z,22.45
2023-03-06T08:34:33.435Z,16.08
2023-03-06T08:37:00.590Z,25.02
2023-03-06T08:39:27.521Z,22.38
2023-03-06T08:41:54.751Z,25.27
2023-03-06T08:44:21.698Z,21.92
2023-03-06T08:46:49.005Z,19.70
2023-03-06T08:49:15.914Z,20.27
2023-03-06T08:51:43.315Z,16.30
2023-03-06T08:54:13.371Z,24.30
2023-03-06T08:56:40.784Z,22.63
2023-03-06T08:59:09.443Z,22.95
2023-03-06T09:01:38.476Z,19.67
2023-03-06T09:04:09.934Z,19.35
2023-03-06T09:06:41.422Z,25.60
2023-03-06T09:09:09.539Z,28.83
2023-03-06T09:11:37.422Z,19.55
2023-03-06T09:14:05.652Z,15.88
2023-03-06T09:16:33.561Z,19.00
2023-03-06T09:19:00.651Z,21.77
2023-03-06T09:21:28.740Z,19.38
2023-03-06T09:23:56.213Z,15.70
2023-03-06T09:26:32.803Z,17.08
2023-03-06T09:29:07.651Z,22.52
2023-03-06T09:31:35.261Z,18.77
2023-03-06T09:34:02.228Z,15.45
2023-03-06T09:36:30.394Z,23.17
2023-03-06T09:38:57.443Z,17.80
2023-03-06T09:41:27.848Z,17.92
2023-03-06T09:44:13.526Z,16.40
2023-03-06T09:47:21.545Z,16.45
2023-03-06T09:50:32.755Z,17.52
2023-03-06T09:53:27.517Z,16.35
2023-03-06T09:56:23.511Z,17.10
2023-03-06T09:58:58.270Z,17.25
2023-03-06T10:01:31.677Z,19.40
2023-03-06T10:04:38.818Z,15.75
2023-03-06T10:07:42.708Z,20.33
2023-03-06T10:10:22.466Z,17.80
2023-03-06T10:13:19.595Z,19.38
2023-03-06T10:15:49.928Z,16.73
2023-03-06T10:18:17.133Z,14.65
2023-03-06T10:21:07.387Z,13.77
2023-03-06T10:24:09.521Z,16.95
2023-03-06T10:26:59.531Z,17.02
2023-03-06T10:30:02.833Z,15.88
2023-03-06T10:32:55.217Z,16.05
2023-03-06T10:35:36.864Z,16.92
2023-03-06T10:38:27.057Z,14.27
2023-03-06T10:41:12.469Z,16.73
2023-03-06T10:43:46.008Z,26.83
2023-03-06T10:46:32.056Z,14.50
2023-03-06T10:49:24.333Z,11.70
2023-03-06T10:52:16.446Z,14.75
2023-03-06T10:54:45.672Z,12.57
2023-03-06T10:57:24.934Z,13.73
2023-03-06T11:00:05.305Z,13.98
2023-03-06T11:02:38.661Z,14.38
2023-03-06T11:05:19.989Z,11.68
2023-03-06T11:08:01.185Z,10.60
2023-03-06T11:10:31.106Z,14.65
2023-03-06T11:13:08.574Z,11.50
2023-03-06T11:15:36.323Z,21.15
2023-03-06T11:18:31.038Z,11.45
2023-03-06T11:20:58.495Z,14.82
2023-03-06T11:23:43.724Z,15.07
2023-03-06T11:26:16.878Z,17.52
2023-03-06T11:29:07.679Z,12.38
2023-03-06T11:31:56.976Z,10.98
2023-03-06T11:35:35.907Z,13.18
2023-03-06T11:38:16.005Z,11.15
2023-03-06T11:40:55.908Z,12.82
2023-03-06T11:43:49.683Z,11.70
2023-03-06T11:46:48.684Z,14.88
2023-03-06T11:49:32.206Z,19.38
2023-03-06T11:52:10.292Z,14.57
2023-03-06T11:54:37.621Z,13.88
2023-03-06T11:57:35.294Z,13.93
2023-03-06T12:00:22.963Z,13.05
2023-03-06T12:03:14.627Z,11.15
2023-03-06T12:06:23.195Z,13.82
2023-03-06T12:09:23.328Z,11.38
2023-03-06T12:12:07.339Z,10.27
2023-03-06T12:15:12.633Z,21.42
2023-03-06T12:17:48.656Z,10.98
2023-03-06T12:20:49.454Z,10.73
2023-03-06T12:24:10.742Z,14.32
2023-03-06T12:27:08.477Z,12.40
2023-03-06T12:30:24.781Z,13.88
2023-03-06T12:33:13.029Z,11.43
2023-03-06T12:35:53.869Z,13.57
2023-03-06T12:38:45.986Z,10.50
2023-03-06T12:41:35.595Z,7.55
2023-03-06T12:44:16.496Z,10.40
2023-03-06T12:47:02.402Z,7.50
2023-03-06T12:49:38.687Z,6.85
2023-03-06T12:52:09.796Z,9.77
2023-03-06T12:54:41.196Z,8.25
2023-03-06T12:57:10.079Z,10.95
2023-03-06T12:59:50.011Z,12.23
2023-03-06T13:02:54.819Z,12.55
2023-03-06T13:05:38.389Z,8.60
2023-03-06T13:08:46.548Z,13.82
2023-03-06T13:11:27.788Z,12.10
2023-03-06T13:13:55.407Z,10.90
2023-03-06T13:16:31.669Z,10.27
2023-03-06T13:19:16.160Z,8.13
2023-03-06T13:21:56.195Z,10.13
2023-03-06T13:24:32.739Z,8.80
2023-03-06T13:27:12.364Z,12.40
2023-03-06T13:29:39.466Z,8.98
2023-03-06T13:32:27.909Z,10.02
2023-03-06T13:34:55.345Z,9.57
2023-03-06T13:37:25.050Z,14.80
2023-03-06T13:39:55.276Z,9.20
2023-03-06T13:42:57.775Z,9.23
2023-03-06T13:45:42.036Z,10.95
2023-03-06T13:48:45.729Z,10.77
2023-03-06T13:51:27.905Z,11.98
2023-03-06T13:54:09.350Z,12.13
2023-03-06T13:56:39.493Z,12.43
2023-03-06T13:59:30.734Z,16.02
2023-03-06T14:02:47.803Z,12.32
2023-03-06T14:05:18.007Z,13.50
2023-03-06T14:08:09.179Z,16.90
2023-03-06T14:10:38.951Z,14.23
2023-03-06T14:13:17.515Z,11.73
2023-03-06T14:15:50.354Z,10.13
2023-03-06T14:18:40.175Z,9.15
2023-03-06T14:21:13.793Z,10.40
2023-03-06T14:23:47.038Z,12.23
2023-03-06T14:26:29.723Z,12.32
2023-03-06T14:29:01.475Z,12.98
2023-03-06T14:31:33.571Z,12.10
2023-03-06T14:34:23.188Z,8.88
2023-03-06T14:36:54.710Z,8.93
2023-03-06T14:39:36.265Z,13.60
2023-03-06T14:42:25.461Z,11.15
2023-03-06T14:45:05.643Z,12.90
2023-03-06T14:47:37.340Z,6.60
2023-03-06T14:50:28.613Z,9.93
2023-03-06T14:53:29.407Z,12.90
2023-03-06T14:56:06.298Z,9.32
2023-03-06T14:59:08.827Z,10.02
2023-03-06T15:01:45.694Z,11.43
2023-03-06T15:05:09.287Z,9.95
2023-03-06T15:07:37.433Z,7.00
2023-03-06T15:10:10.516Z,9.77
2023-03-06T15:12:38.924Z,10.18
2023-03-06T15:15:10.488Z,9.20
2023-03-06T15:17:44.190Z,9.52
2023-03-06T15:20:42.020Z,9.40
2023-03-06T15:23:34.059Z,8.05
2023-03-06T15:26:19.085Z,9.32
2023-03-06T15:29:12.923Z,9.38
2023-03-06T15:31:45.743Z,11.52
2023-03-06T15:34:12.956Z,11.23
2023-03-06T15:36:51.480Z,11.02
2023-03-06T15:39:39.991Z,11.80
2023-03-06T15:42:29.295Z,10.23
2023-03-06T15:45:03.353Z,12.80
2023-03-06T15:47:30.546Z,10.35
2023-03-06T15:49:57.889Z,15.50
2023-03-06T15:52:25.096Z,12.07
2023-03-06T15:54:52.414Z,11.98
2023-03-06T15:57:29.454Z,12.95
2023-03-06T16:00:00.221Z,12.63
2023-03-06T16:02:27.657Z,16.60
2023-03-06T16:04:55.098Z,9.90
2023-03-06T16:07:22.343Z,18.70
2023-03-06T16:09:49.763Z,11.77
2023-03-06T16:12:20.461Z,14.88
2023-03-06T16:14:49.347Z,6.82
2023-03-06T16:17:17.691Z,10.43
2023-03-06T16:19:45.334Z,31.73
2023-03-06T16:22:12.633Z,8.50
2023-03-06T16:24:39.792Z,7.57
2023-03-06T16:27:16.016Z,13.00
2023-03-06T16:29:46.596Z,14.43
2023-03-06T16:32:15.120Z,10.07
2023-03-06T16:34:42.420Z,10.93
2023-03-06T16:37:13.892Z,9.30
2023-03-06T16:39:41.220Z,12.65
2023-03-06T16:42:08.501Z,16.85
2023-03-06T16:44:35.843Z,10.90
2023-03-06T16:47:03.169Z,14.45
2023-03-06T16:49:30.550Z,10.23
2023-03-06T16:51:57.820Z,13.68
2023-03-06T16:54:26.289Z,16.50
2023-03-06T16:56:53.386Z,10.27
2023-03-06T16:59:20.670Z,19.30
2023-03-06T17:01:47.708Z,16.45
2023-03-06T17:04:15.126Z,12.88
2023-03-06T17:06:43.262Z,14.10
2023-03-06T17:09:11.041Z,16.25
2023-03-06T17:11:43.496Z,21.27
2023-03-06T17:14:11.247Z,14.43
2023-03-06T17:16:40.572Z,11.38
2023-03-06T17:19:15.324Z,14.73
2023-03-06T17:21:44.416Z,9.80
2023-03-06T17:24:11.750Z,22.55
2023-03-06T17:26:39.218Z,17.08
2023-03-06T17:29:07.188Z,19.38
2023-03-06T17:31:35.645Z,14.02
2023-03-06T17:34:03.039Z,19.00
2023-03-06T17:36:31.920Z,14.45
2023-03-06T17:39:02.170Z,11.85
2023-03-06T17:41:30.161Z,12.80
2023-03-06T17:43:59.136Z,13.82
2023-03-06T17:46:26.567Z,24.15
2023-03-06T17:48:55.340Z,10.88
2023-03-06T17:51:22.337Z,10.93
2023-03-06T17:53:52.216Z,20.75
2023-03-06T17:56:19.410Z,26.52
2023-03-06T17:58:46.639Z,22.85
2023-03-06T18:01:23.141Z,14.05
2023-03-06T18:03:51.857Z,14.52
2023-03-06T18:06:20.787Z,16.40
2023-03-06T18:08:52.305Z,17.00
2023-03-06T18:11:20.281Z,21.85
2023-03-06T18:13:48.840Z,18.15
2023-03-06T18:16:20.587Z,16.67
2023-03-06T18:18:48.190Z,19.92
2023-03-06T18:21:16.784Z,18.95
2023-03-06T18:23:44.262Z,23.50
2023-03-06T18:26:16.729Z,29.58
2023-03-06T18:28:48.589Z,25.92
2023-03-06T18:31:23.450Z,24.50
2023-03-06T18:33:57.284Z,20.20
2023-03-06T18:36:30.411Z,40.72
2023-03-06T18:39:00.792Z,29.55
2023-03-06T18:41:28.523Z,21.83
2023-03-06T18:43:59.941Z,22.10
2023-03-06T18:46:33.082Z,17.88
2023-03-06T18:49:01.571Z,18.67
2023-03-06T18:51:29.349Z,24.42
2023-03-06T18:53:58.293Z,32.58
2023-03-06T18:56:25.473Z,23.40
2023-03-06T18:58:53.939Z,23.38
2023-03-06T19:01:22.636Z,16.70
2023-03-06T19:03:50.412Z,24.75
2023-03-06T19:06:18.209Z,23.58
2023-03-06T19:08:45.425Z,19.77
2023-03-06T19:11:16.244Z,33.83
2023-03-06T19:13:44.813Z,25.17
2023-03-06T19:16:23.269Z,22.23
2023-03-06T19:18:51.005Z,18.58
2023-03-06T19:21:21.124Z,26.98
2023-03-06T19:23:48.910Z,19.92
2023-03-06T19:26:18.821Z,17.67
2023-03-06T19:28:47.731Z,28.90
2023-03-06T19:31:21.909Z,17.48
2023-03-06T19:33:53.040Z,17.58
2023-03-06T19:36:26.500Z,17.52
2023-03-06T19:39:03.939Z,38.83
2023-03-06T19:41:30.898Z,21.75
2023-03-06T19:44:02.665Z,20.55
2023-03-06T19:46:30.007Z,29.00
2023-03-06T19:49:02.770Z,26.70
2023-03-06T19:51:30.091Z,25.80
2023-03-06T19:53:58.210Z,24.25
2023-03-06T19:56:29.067Z,27.42
2023-03-06T19:58:57.024Z,22.02
2023-03-06T20:01:27.916Z,16.13
2023-03-06T20:03:59.239Z,20.23
2023-03-06T20:06:33.460Z,24.38
2023-03-06T20:09:04.122Z,24.10
2023-03-06T20:11:31.376Z,22.58
2023-03-06T20:14:01.716Z,16.85
2023-03-06T20:16:30.259Z,19.30
2023-03-06T20:19:00.775Z,16.55
2023-03-06T20:21:31.246Z,21.90
2023-03-06T20:23:59.670Z,18.60
2023-03-06T20:26:29.630Z,18.98
2023-03-06T20:28:58.451Z,18.95
2023-03-06T20:31:29.367Z,16.27
2023-03-06T20:33:59.400Z,18.60
2023-03-06T20:36:31.388Z,25.05
2023-03-06T20:39:10.186Z,16.02
2023-03-06T20:41:37.892Z,20.17
2023-03-06T20:44:08.780Z,17.63
2023-03-06T20:46:36.729Z,15.82
2023-03-06T20:49:05.492Z,19.60
2023-03-06T20:52:18.908Z,18.35
2023-03-06T20:54:46.611Z,16.25
2023-03-06T20:57:14.221Z,15.30
2023-03-06T20:59:44.161Z,14.98
2023-03-06T21:02:12.108Z,16.58
2023-03-06T21:04:41.104Z,16.77
2023-03-06T21:07:08.456Z,18.38
2023-03-06T21:09:37.743Z,18.30
2023-03-06T21:12:06.359Z,19.83
2023-03-06T21:14:33.871Z,18.38
2023-03-06T21:17:01.368Z,16.90
2023-03-06T21:19:29.037Z,16.08
2023-03-06T21:21:56.128Z,20.35
2023-03-06T21:24:23.906Z,21.88
2023-03-06T21:26:52.090Z,14.63
2023-03-06T21:29:19.654Z,17.88
2023-03-06T21:31:46.592Z,15.70
2023-03-06T21:34:13.788Z,15.45
2023-03-06T21:36:41.194Z,16.27
2023-03-06T21:39:08.550Z,13.30
2023-03-06T21:41:35.813Z,18.42
2023-03-06T21:44:06.026Z,19.05
2023-03-06T21:46:34.161Z,16.10
2023-03-06T21:49:04.550Z,15.00
2023-03-06T21:51:32.099Z,16.85
2023-03-06T21:53:59.463Z,18.77
2023-03-06T21:56:28.564Z,15.25
2023-03-06T21:58:58.258Z,16.85
2023-03-06T22:01:28.969Z,18.17
2023-03-06T22:03:58.322Z,16.13
2023-03-06T22:06:29.550Z,15.43
2023-03-06T22:08:59.637Z,15.52
2023-03-06T22:11:31.266Z,16.38
2023-03-06T22:13:58.784Z,17.65
2023-03-06T22:16:25.876Z,14.55
2023-03-06T22:18:53.214Z,17.63
2023-03-06T22:21:22.888Z,18.77
2023-03-06T22:23:59.455Z,21.33
2023-03-06T22:26:28.990Z,16.60
2023-03-06T22:28:56.526Z,16.23
2023-03-06T22:31:27.197Z,17.25
2023-03-06T22:33:57.030Z,16.20
2023-03-06T22:36:25.160Z,15.25
2023-03-06T22:39:04.407Z,20.85
2023-03-06T22:41:31.926Z,20.10
2023-03-06T22:44:02.280Z,18.10
2023-03-06T22:46:30.479Z,16.88
2023-03-06T22:49:00.234Z,17.65
2023-03-06T22:51:29.779Z,15.52
2023-03-06T22:53:57.130Z,17.98
2023-03-06T22:56:24.913Z,17.88
2023-03-06T22:58:52.364Z,18.88
2023-03-06T23:01:26.390Z,19.13
2023-03-06T23:04:08.455Z,16.73
2023-03-06T23:06:39.946Z,27.40
2023-03-06T23:09:14.809Z,17.90
2023-03-06T23:11:42.452Z,20.75
2023-03-06T23:14:12.581Z,23.02
2023-03-06T23:16:40.161Z,16.92
2023-03-06T23:19:07.731Z,19.50
2023-03-06T23:21:35.073Z,21.95
2023-03-06T23:24:03.028Z,20.95
2023-03-06T23:26:32.017Z,20.95
2023-03-06T23:28:59.217Z,19.73
2023-03-06T23:31:30.016Z,28.42
2023-03-06T23:34:00.579Z,21.25
2023-03-06T23:36:29.641Z,20.08
2023-03-06T23:38:58.752Z,21.40
2023-03-06T23:41:26.222Z,19.05
2023-03-06T23:43:55.121Z,19.75
2023-03-06T23:46:22.974Z,21.95
2023-03-06T23:48:50.316Z,21.50
2023-03-06T23:51:20.879Z,20.00
2023-03-06T23:53:56.259Z,19.52
2023-03-06T23:56:25.133Z,22.85
2023-03-06T23:58:52.974Z,23.65
